sensor_id;sensor_type;location;lat;lon;timestamp;P1;durP1;ratioP1;P2;durP2;ratioP2
6953;SDS011;3516;47.980;8.808;2022-12-07T04:52:41;2.45;;;1.10;;
6953;SDS011;3516;47.980;8.808;2022-12-07T04:55:08;2.17;;;1.10;;
6953;SDS011;3516;47.980;8.808;2022-12-07T04:57:34;2.60;;;1.13;;
6953;SDS011;3516;47.980;8.808;2022-12-07T05:00:01;1.48;;;1.38;;
6953;SDS011;3516;47.980;8.808;2022-12-07T05:02:28;2.35;;;1.08;;
6953;SDS011;3516;47.980;8.808;2022-12-07T05:04:55;3.53;;;1.10;;
6953;SDS011;3516;47.980;8.808;2022-12-07T05:07:22;1.20;;;1.20;;
6953;SDS011;3516;47.980;8.808;2022-12-07T05:09:50;2.05;;;1.38;;
6953;SDS011;3516;47.980;8.808;2022-12-07T05:12:17;2.60;;;1.08;;
6953;SDS011;3516;47.980;8.808;2022-12-07T05:14:44;1.10;;;1.10;;
6953;SDS011;3516;47.980;8.808;2022-12-07T05:17:11;1.33;;;1.30;;
6953;SDS011;3516;47.980;8.808;2022-12-07T05:19:37;1.13;;;1.13;;
6953;SDS011;3516;47.980;8.808;2022-12-07T05:22:04;1.10;;;1.10;;
6953;SDS011;3516;47.980;8.808;2022-12-07T05:24:31;4.13;;;1.35;;
6953;SDS011;3516;47.980;8.808;2022-12-07T05:26:59;1.13;;;1.02;;
6953;SDS011;3516;47.980;8.808;2022-12-07T05:29:26;1.30;;;1.13;;
6953;SDS011;3516;47.980;8.808;2022-12-07T05:31:53;1.50;;;1.10;;
6953;SDS011;3516;47.980;8.808;2022-12-07T05:34:19;3.92;;;1.10;;
6953;SDS011;3516;47.980;8.808;2022-12-07T05:36:46;0.90;;;0.90;;
6953;SDS011;3516;47.980;8.808;2022-12-07T05:39:13;2.13;;;1.33;;
6953;SDS011;3516;47.980;8.808;2022-12-07T05:41:40;1.90;;;1.52;;
6953;SDS011;3516;47.980;8.808;2022-12-07T05:44:25;1.10;;;1.10;;
6953;SDS011;3516;47.980;8.808;2022-12-07T05:46:52;1.10;;;1.10;;
6953;SDS011;3516;47.980;8.808;2022-12-07T05:49:19;1.00;;;1.00;;
6953;SDS011;3516;47.980;8.808;2022-12-07T05:51:45;1.25;;;1.20;;
6953;SDS011;3516;47.980;8.808;2022-12-07T05:54:12;0.80;;;0.80;;
6953;SDS011;3516;47.980;8.808;2022-12-07T05:56:39;1.65;;;1.23;;
6953;SDS011;3516;47.980;8.808;2022-12-07T05:59:07;1.40;;;1.30;;
6953;SDS011;3516;47.980;8.808;2022-12-07T06:01:49;2.83;;;1.38;;
6953;SDS011;3516;47.980;8.808;2022-12-07T06:04:16;2.05;;;1.27;;
6953;SDS011;3516;47.980;8.808;2022-12-07T06:06:43;1.33;;;1.23;;
6953;SDS011;3516;47.980;8.808;2022-12-07T06:09:10;0.90;;;0.90;;
6953;SDS011;3516;47.980;8.808;2022-12-07T06:11:38;1.75;;;1.02;;
6953;SDS011;3516;47.980;8.808;2022-12-07T06:14:22;1.30;;;1.30;;
6953;SDS011;3516;47.980;8.808;2022-12-07T06:16:50;1.20;;;1.20;;
6953;SDS011;3516;47.980;8.808;2022-12-07T06:19:17;1.10;;;1.10;;
6953;SDS011;3516;47.980;8.808;2022-12-07T06:21:44;4.32;;;1.20;;
6953;SDS011;3516;47.980;8.808;2022-12-07T06:24:11;8.93;;;1.90;;
6953;SDS011;3516;47.980;8.808;2022-12-07T06:26:38;2.70;;;1.40;;
6953;SDS011;3516;47.980;8.808;2022-12-07T06:29:06;7.32;;;2.00;;
6953;SDS011;3516;47.980;8.808;2022-12-07T06:31:35;12.55;;;2.17;;
6953;SDS011;3516;47.980;8.808;2022-12-07T06:34:04;6.85;;;1.88;;
6953;SDS011;3516;47.980;8.808;2022-12-07T06:36:32;13.10;;;2.33;;
6953;SDS011;3516;47.980;8.808;2022-12-07T06:38:59;27.35;;;2.42;;
6953;SDS011;3516;47.980;8.808;2022-12-07T06:41:26;23.85;;;3.25;;
6953;SDS011;3516;47.980;8.808;2022-12-07T06:43:53;19.13;;;2.50;;
6953;SDS011;3516;47.980;8.808;2022-12-07T06:46:20;9.88;;;2.30;;
6953;SDS011;3516;47.980;8.808;2022-12-07T06:48:47;11.73;;;3.83;;
6953;SDS011;3516;47.980;8.808;2022-12-07T06:51:15;20.42;;;4.45;;
6953;SDS011;3516;47.980;8.808;2022-12-07T06:53:42;22.55;;;4.60;;
6953;SDS011;3516;47.980;8.808;2022-12-07T06:56:08;25.20;;;5.15;;
6953;SDS011;3516;47.980;8.808;2022-12-07T06:58:36;17.20;;;3.10;;
6953;SDS011;3516;47.980;8.808;2022-12-07T07:01:07;18.85;;;3.45;;
6953;SDS011;3516;47.980;8.808;2022-12-07T07:03:35;13.35;;;3.58;;
6953;SDS011;3516;47.980;8.808;2022-12-07T07:06:01;16.30;;;4.30;;
6953;SDS011;3516;47.980;8.808;2022-12-07T07:08:30;16.25;;;3.38;;
6953;SDS011;3516;47.980;8.808;2022-12-07T07:10:56;13.15;;;3.47;;
6953;SDS011;3516;47.980;8.808;2022-12-07T07:13:23;11.85;;;3.40;;
6953;SDS011;3516;47.980;8.808;2022-12-07T07:15:50;17.65;;;4.07;;
6953;SDS011;3516;47.980;8.808;2022-12-07T07:18:17;13.30;;;3.45;;
6953;SDS011;3516;47.980;8.808;2022-12-07T07:20:43;12.98;;;3.15;;
6953;SDS011;3516;47.980;8.808;2022-12-07T07:23:10;9.50;;;3.10;;
6953;SDS011;3516;47.980;8.808;2022-12-07T07:25:38;16.65;;;3.10;;
6953;SDS011;3516;47.980;8.808;2022-12-07T07:28:05;14.90;;;3.33;;
6953;SDS011;3516;47.980;8.808;2022-12-07T07:30:32;14.45;;;3.00;;
6953;SDS011;3516;47.980;8.808;2022-12-07T07:32:59;10.90;;;2.97;;
6953;SDS011;3516;47.980;8.808;2022-12-07T07:35:27;13.13;;;2.92;;
6953;SDS011;3516;47.980;8.808;2022-12-07T07:37:55;13.23;;;2.67;;
6953;SDS011;3516;47.980;8.808;2022-12-07T07:40:22;14.43;;;2.97;;
6953;SDS011;3516;47.980;8.808;2022-12-07T07:42:51;8.93;;;2.90;;
6953;SDS011;3516;47.980;8.808;2022-12-07T07:45:19;11.85;;;2.95;;
6953;SDS011;3516;47.980;8.808;2022-12-07T07:47:47;12.07;;;3.42;;
6953;SDS011;3516;47.980;8.808;2022-12-07T07:50:14;10.18;;;2.80;;
6953;SDS011;3516;47.980;8.808;2022-12-07T07:52:41;9.27;;;2.40;;
6953;SDS011;3516;47.980;8.808;2022-12-07T07:55:08;13.20;;;2.75;;
6953;SDS011;3516;47.980;8.808;2022-12-07T07:57:35;11.70;;;2.97;;
6953;SDS011;3516;47.980;8.808;2022-12-07T08:00:05;9.63;;;2.75;;
6953;SDS011;3516;47.980;8.808;2022-12-07T08:02:35;11.95;;;2.95;;
6953;SDS011;3516;47.980;8.808;2022-12-07T08:05:02;8.45;;;2.38;;
6953;SDS011;3516;47.980;8.808;2022-12-07T08:07:29;9.10;;;2.53;;
6953;SDS011;3516;47.980;8.808;2022-12-07T08:09:56;12.00;;;2.42;;
6953;SDS011;3516;47.980;8.808;2022-12-07T08:12:23;9.45;;;2.33;;
6953;SDS011;3516;47.980;8.808;2022-12-07T08:14:50;6.07;;;1.95;;
6953;SDS011;3516;47.980;8.808;2022-12-07T08:17:18;9.18;;;2.40;;
6953;SDS011;3516;47.980;8.808;2022-12-07T08:19:44;12.20;;;2.85;;
6953;SDS011;3516;47.980;8.808;2022-12-07T08:22:11;5.97;;;2.63;;
6953;SDS011;3516;47.980;8.808;2022-12-07T08:24:38;7.65;;;2.38;;
6953;SDS011;3516;47.980;8.808;2022-12-07T08:27:05;6.72;;;2.30;;
6953;SDS011;3516;47.980;8.808;2022-12-07T08:29:31;6.45;;;2.35;;
6953;SDS011;3516;47.980;8.808;2022-12-07T08:31:58;7.57;;;2.10;;
6953;SDS011;3516;47.980;8.808;2022-12-07T08:34:27;6.20;;;2.28;;
6953;SDS011;3516;47.980;8.808;2022-12-07T08:36:54;5.38;;;1.92;;
6953;SDS011;3516;47.980;8.808;2022-12-07T08:39:21;5.43;;;1.95;;
6953;SDS011;3516;47.980;8.808;2022-12-07T08:41:47;6.82;;;2.20;;
6953;SDS011;3516;47.980;8.808;2022-12-07T08:44:14;3.65;;;1.92;;
6953;SDS011;3516;47.980;8.808;2022-12-07T08:46:41;9.95;;;2.10;;
6953;SDS011;3516;47.980;8.808;2022-12-07T08:49:13;4.38;;;2.28;;
6953;SDS011;3516;47.980;8.808;2022-12-07T08:51:43;8.35;;;2.20;;
6953;SDS011;3516;47.980;8.808;2022-12-07T08:54:13;7.55;;;2.08;;
6953;SDS011;3516;47.980;8.808;2022-12-07T08:56:42;2.92;;;1.77;;
6953;SDS011;3516;47.980;8.808;2022-12-07T08:59:12;5.78;;;2.13;;
6953;SDS011;3516;47.980;8.808;2022-12-07T09:01:40;7.22;;;1.63;;
6953;SDS011;3516;47.980;8.808;2022-12-07T09:04:07;5.30;;;2.65;;
6953;SDS011;3516;47.980;8.808;2022-12-07T09:06:34;6.47;;;2.22;;
6953;SDS011;3516;47.980;8.808;2022-12-07T09:09:02;5.55;;;1.67;;
6953;SDS011;3516;47.980;8.808;2022-12-07T09:11:30;8.73;;;2.30;;
6953;SDS011;3516;47.980;8.808;2022-12-07T09:13:57;10.07;;;2.17;;
6953;SDS011;3516;47.980;8.808;2022-12-07T09:16:23;3.33;;;2.13;;
6953;SDS011;3516;47.980;8.808;2022-12-07T09:18:50;4.97;;;1.88;;
6953;SDS011;3516;47.980;8.808;2022-12-07T09:21:17;2.10;;;1.77;;
6953;SDS011;3516;47.980;8.808;2022-12-07T09:23:44;3.60;;;2.40;;
6953;SDS011;3516;47.980;8.808;2022-12-07T09:26:12;9.57;;;2.38;;
6953;SDS011;3516;47.980;8.808;2022-12-07T09:28:38;7.25;;;2.00;;
6953;SDS011;3516;47.980;8.808;2022-12-07T09:31:05;7.28;;;2.30;;
6953;SDS011;3516;47.980;8.808;2022-12-07T09:33:32;6.80;;;1.98;;
6953;SDS011;3516;47.980;8.808;2022-12-07T09:35:59;7.15;;;2.10;;
6953;SDS011;3516;47.980;8.808;2022-12-07T09:38:26;5.30;;;2.22;;
6953;SDS011;3516;47.980;8.808;2022-12-07T09:40:54;6.20;;;1.98;;
6953;SDS011;3516;47.980;8.808;2022-12-07T09:43:23;9.25;;;2.00;;
6953;SDS011;3516;47.980;8.808;2022-12-07T09:45:52;9.50;;;2.10;;
6953;SDS011;3516;47.980;8.808;2022-12-07T09:48:22;5.97;;;2.13;;
6953;SDS011;3516;47.980;8.808;2022-12-07T09:50:55;3.83;;;2.22;;
6953;SDS011;3516;47.980;8.808;2022-12-07T09:53:25;7.43;;;2.03;;
6953;SDS011;3516;47.980;8.808;2022-12-07T09:55:54;5.03;;;2.40;;
6953;SDS011;3516;47.980;8.808;2022-12-07T09:58:23;4.32;;;1.90;;
6953;SDS011;3516;47.980;8.808;2022-12-07T10:00:52;7.18;;;2.17;;
6953;SDS011;3516;47.980;8.808;2022-12-07T10:03:22;4.32;;;1.80;;
6953;SDS011;3516;47.980;8.808;2022-12-07T10:05:50;4.65;;;2.10;;
6953;SDS011;3516;47.980;8.808;2022-12-07T10:08:18;7.35;;;1.95;;
6953;SDS011;3516;47.980;8.808;2022-12-07T10:10:46;3.38;;;1.70;;
6953;SDS011;3516;47.980;8.808;2022-12-07T10:13:18;3.15;;;1.98;;
6953;SDS011;3516;47.980;8.808;2022-12-07T10:15:49;1.67;;;1.63;;
6953;SDS011;3516;47.980;8.808;2022-12-07T10:18:24;5.32;;;1.85;;
6953;SDS011;3516;47.980;8.808;2022-12-07T10:21:00;9.18;;;2.47;;
6953;SDS011;3516;47.980;8.808;2022-12-07T10:23:29;3.40;;;1.83;;
6953;SDS011;3516;47.980;8.808;2022-12-07T10:25:56;4.28;;;1.77;;
6953;SDS011;3516;47.980;8.808;2022-12-07T10:28:23;10.10;;;2.05;;
6953;SDS011;3516;47.980;8.808;2022-12-07T10:31:00;5.57;;;2.25;;
6953;SDS011;3516;47.980;8.808;2022-12-07T10:33:31;4.90;;;2.33;;
6953;SDS011;3516;47.980;8.808;2022-12-07T10:36:00;4.97;;;1.85;;
6953;SDS011;3516;47.980;8.808;2022-12-07T10:38:43;2.53;;;1.52;;
6953;SDS011;3516;47.980;8.808;2022-12-07T10:41:12;4.60;;;1.95;;
6953;SDS011;3516;47.980;8.808;2022-12-07T10:43:45;8.35;;;1.55;;
6953;SDS011;3516;47.980;8.808;2022-12-07T10:46:21;4.53;;;1.90;;
6953;SDS011;3516;47.980;8.808;2022-12-07T10:52:09;4.43;;;1.45;;
6953;SDS011;3516;47.980;8.808;2022-12-07T10:54:45;3.80;;;1.83;;
6953;SDS011;3516;47.980;8.808;2022-12-07T10:57:24;4.95;;;1.90;;
6953;SDS011;3516;47.980;8.808;2022-12-07T11:00:00;6.50;;;1.92;;
6953;SDS011;3516;47.980;8.808;2022-12-07T11:02:39;6.18;;;2.40;;
6953;SDS011;3516;47.980;8.808;2022-12-07T11:05:20;4.88;;;1.63;;
6953;SDS011;3516;47.980;8.808;2022-12-07T11:07:56;2.70;;;2.00;;
6953;SDS011;3516;47.980;8.808;2022-12-07T11:10:32;4.82;;;1.88;;
6953;SDS011;3516;47.980;8.808;2022-12-07T11:13:16;7.13;;;1.60;;
6953;SDS011;3516;47.980;8.808;2022-12-07T11:18:43;6.18;;;1.95;;
6953;SDS011;3516;47.980;8.808;2022-12-07T11:21:20;2.95;;;1.73;;
6953;SDS011;3516;47.980;8.808;2022-12-07T11:23:54;6.03;;;1.80;;
6953;SDS011;3516;47.980;8.808;2022-12-07T11:26:31;8.32;;;1.65;;
6953;SDS011;3516;47.980;8.808;2022-12-07T11:29:16;2.75;;;1.55;;
6953;SDS011;3516;47.980;8.808;2022-12-07T11:31:57;6.03;;;2.03;;
6953;SDS011;3516;47.980;8.808;2022-12-07T11:34:35;4.00;;;1.70;;
6953;SDS011;3516;47.980;8.808;2022-12-07T11:37:07;7.20;;;1.73;;
6953;SDS011;3516;47.980;8.808;2022-12-07T11:39:39;6.70;;;1.48;;
6953;SDS011;3516;47.980;8.808;2022-12-07T11:42:12;3.00;;;1.17;;
6953;SDS011;3516;47.980;8.808;2022-12-07T11:44:45;2.20;;;1.52;;
6953;SDS011;3516;47.980;8.808;2022-12-07T11:47:20;4.22;;;1.70;;
6953;SDS011;3516;47.980;8.808;2022-12-07T11:49:56;5.72;;;1.70;;
6953;SDS011;3516;47.980;8.808;2022-12-07T11:52:30;2.35;;;1.80;;
6953;SDS011;3516;47.980;8.808;2022-12-07T11:55:02;11.65;;;2.03;;
6953;SDS011;3516;47.980;8.808;2022-12-07T11:57:41;9.40;;;2.05;;
6953;SDS011;3516;47.980;8.808;2022-12-07T12:00:14;6.45;;;1.98;;
6953;SDS011;3516;47.980;8.808;2022-12-07T12:02:43;9.73;;;2.70;;
6953;SDS011;3516;47.980;8.808;2022-12-07T12:05:17;5.00;;;2.20;;
6953;SDS011;3516;47.980;8.808;2022-12-07T12:07:48;6.25;;;1.80;;
6953;SDS011;3516;47.980;8.808;2022-12-07T12:10:20;8.50;;;2.22;;
6953;SDS011;3516;47.980;8.808;2022-12-07T12:13:05;14.07;;;2.50;;
6953;SDS011;3516;47.980;8.808;2022-12-07T12:16:00;10.50;;;2.13;;
6953;SDS011;3516;47.980;8.808;2022-12-07T12:18:48;7.32;;;2.55;;
6953;SDS011;3516;47.980;8.808;2022-12-07T12:21:27;12.25;;;2.90;;
6953;SDS011;3516;47.980;8.808;2022-12-07T12:23:56;7.13;;;3.13;;
6953;SDS011;3516;47.980;8.808;2022-12-07T12:26:26;14.32;;;3.15;;
6953;SDS011;3516;47.980;8.808;2022-12-07T12:28:56;7.55;;;2.80;;
6953;SDS011;3516;47.980;8.808;2022-12-07T12:31:32;16.98;;;3.00;;
6953;SDS011;3516;47.980;8.808;2022-12-07T12:34:04;12.52;;;2.88;;
6953;SDS011;3516;47.980;8.808;2022-12-07T12:36:59;8.63;;;2.72;;
6953;SDS011;3516;47.980;8.808;2022-12-07T12:39:26;11.45;;;2.33;;
6953;SDS011;3516;47.980;8.808;2022-12-07T12:41:56;18.08;;;2.53;;
6953;SDS011;3516;47.980;8.808;2022-12-07T12:44:40;7.38;;;2.30;;
6953;SDS011;3516;47.980;8.808;2022-12-07T12:47:41;10.73;;;2.58;;
6953;SDS011;3516;47.980;8.808;2022-12-07T12:50:19;6.10;;;2.10;;
6953;SDS011;3516;47.980;8.808;2022-12-07T12:52:55;12.38;;;2.40;;
6953;SDS011;3516;47.980;8.808;2022-12-07T12:58:43;8.38;;;2.08;;
6953;SDS011;3516;47.980;8.808;2022-12-07T13:07:09;12.75;;;2.70;;
6953;SDS011;3516;47.980;8.808;2022-12-07T13:09:41;8.00;;;1.95;;
6953;SDS011;3516;47.980;8.808;2022-12-07T13:12:12;12.90;;;2.22;;
6953;SDS011;3516;47.980;8.808;2022-12-07T13:17:57;9.80;;;1.95;;
6953;SDS011;3516;47.980;8.808;2022-12-07T13:20:46;4.45;;;1.75;;
6953;SDS011;3516;47.980;8.808;2022-12-07T13:23:16;10.38;;;2.00;;
6953;SDS011;3516;47.980;8.808;2022-12-07T13:25:53;4.63;;;2.30;;
6953;SDS011;3516;47.980;8.808;2022-12-07T13:28:22;9.57;;;1.98;;
6953;SDS011;3516;47.980;8.808;2022-12-07T13:31:00;4.50;;;1.80;;
6953;SDS011;3516;47.980;8.808;2022-12-07T13:33:37;5.43;;;2.00;;
6953;SDS011;3516;47.980;8.808;2022-12-07T13:36:04;6.65;;;1.73;;
6953;SDS011;3516;47.980;8.808;2022-12-07T13:38:39;8.43;;;1.90;;
6953;SDS011;3516;47.980;8.808;2022-12-07T13:41:18;12.57;;;2.30;;
6953;SDS011;3516;47.980;8.808;2022-12-07T13:43:48;11.25;;;1.70;;
6953;SDS011;3516;47.980;8.808;2022-12-07T13:46:17;4.80;;;1.60;;
6953;SDS011;3516;47.980;8.808;2022-12-07T13:48:50;7.50;;;2.15;;
6953;SDS011;3516;47.980;8.808;2022-12-07T13:51:18;5.07;;;2.25;;
6953;SDS011;3516;47.980;8.808;2022-12-07T13:53:46;6.20;;;1.60;;
6953;SDS011;3516;47.980;8.808;2022-12-07T13:56:14;5.13;;;1.85;;
6953;SDS011;3516;47.980;8.808;2022-12-07T13:58:42;7.40;;;1.80;;
6953;SDS011;3516;47.980;8.808;2022-12-07T14:01:10;5.03;;;1.92;;
6953;SDS011;3516;47.980;8.808;2022-12-07T14:03:38;6.38;;;1.60;;
6953;SDS011;3516;47.980;8.808;2022-12-07T14:06:06;2.65;;;1.60;;
6953;SDS011;3516;47.980;8.808;2022-12-07T14:08:40;2.38;;;1.52;;
6953;SDS011;3516;47.980;8.808;2022-12-07T14:11:07;12.32;;;1.80;;
6953;SDS011;3516;47.980;8.808;2022-12-07T14:13:44;4.07;;;2.13;;
6953;SDS011;3516;47.980;8.808;2022-12-07T14:16:20;6.78;;;1.80;;
6953;SDS011;3516;47.980;8.808;2022-12-07T14:18:50;8.48;;;1.92;;
6953;SDS011;3516;47.980;8.808;2022-12-07T14:21:19;6.88;;;1.83;;
6953;SDS011;3516;47.980;8.808;2022-12-07T14:24:02;5.47;;;1.70;;
6953;SDS011;3516;47.980;8.808;2022-12-07T14:26:34;6.03;;;1.88;;
6953;SDS011;3516;47.980;8.808;2022-12-07T14:31:57;3.95;;;2.22;;
6953;SDS011;3516;47.980;8.808;2022-12-07T14:34:36;6.97;;;1.90;;
6953;SDS011;3516;47.980;8.808;2022-12-07T14:37:03;4.68;;;1.52;;
6953;SDS011;3516;47.980;8.808;2022-12-07T14:39:33;4.68;;;1.70;;
6953;SDS011;3516;47.980;8.808;2022-12-07T14:41:59;5.13;;;1.73;;
6953;SDS011;3516;47.980;8.808;2022-12-07T14:44:26;4.10;;;1.70;;
6953;SDS011;3516;47.980;8.808;2022-12-07T14:46:55;3.00;;;1.95;;
6953;SDS011;3516;47.980;8.808;2022-12-07T14:49:21;8.27;;;1.92;;
6953;SDS011;3516;47.980;8.808;2022-12-07T14:51:48;2.03;;;1.70;;
6953;SDS011;3516;47.980;8.808;2022-12-07T14:54:15;1.83;;;1.50;;
6953;SDS011;3516;47.980;8.808;2022-12-07T14:56:43;2.90;;;1.58;;
6953;SDS011;3516;47.980;8.808;2022-12-07T14:59:10;6.15;;;1.83;;
6953;SDS011;3516;47.980;8.808;2022-12-07T15:01:38;20.38;;;1.80;;
6953;SDS011;3516;47.980;8.808;2022-12-07T15:04:06;8.82;;;3.25;;
6953;SDS011;3516;47.980;8.808;2022-12-07T15:14:19;15.32;;;3.67;;
6953;SDS011;3516;47.980;8.808;2022-12-07T15:16:46;21.67;;;3.88;;
6953;SDS011;3516;47.980;8.808;2022-12-07T15:19:14;8.10;;;3.00;;
6953;SDS011;3516;47.980;8.808;2022-12-07T15:21:43;11.88;;;3.20;;
6953;SDS011;3516;47.980;8.808;2022-12-07T15:24:10;9.05;;;2.88;;
6953;SDS011;3516;47.980;8.808;2022-12-07T15:26:38;8.30;;;2.85;;
6953;SDS011;3516;47.980;8.808;2022-12-07T15:29:06;12.82;;;2.47;;
6953;SDS011;3516;47.980;8.808;2022-12-07T15:31:34;9.30;;;3.45;;
6953;SDS011;3516;47.980;8.808;2022-12-07T15:34:01;12.10;;;2.83;;
6953;SDS011;3516;47.980;8.808;2022-12-07T15:36:30;7.78;;;2.75;;
6953;SDS011;3516;47.980;8.808;2022-12-07T15:38:57;8.82;;;2.92;;
6953;SDS011;3516;47.980;8.808;2022-12-07T15:41:24;8.38;;;2.50;;
6953;SDS011;3516;47.980;8.808;2022-12-07T15:43:51;8.88;;;2.13;;
6953;SDS011;3516;47.980;8.808;2022-12-07T15:46:37;6.85;;;2.70;;
6953;SDS011;3516;47.980;8.808;2022-12-07T15:49:05;9.43;;;2.80;;
6953;SDS011;3516;47.980;8.808;2022-12-07T15:51:37;6.55;;;2.90;;
6953;SDS011;3516;47.980;8.808;2022-12-07T15:54:03;10.73;;;2.97;;
6953;SDS011;3516;47.980;8.808;2022-12-07T15:56:30;11.52;;;3.30;;
6953;SDS011;3516;47.980;8.808;2022-12-07T15:58:57;7.60;;;2.70;;
6953;SDS011;3516;47.980;8.808;2022-12-07T16:01:24;20.65;;;3.72;;
6953;SDS011;3516;47.980;8.808;2022-12-07T16:03:50;14.68;;;3.58;;
6953;SDS011;3516;47.980;8.808;2022-12-07T16:06:17;16.17;;;3.35;;
6953;SDS011;3516;47.980;8.808;2022-12-07T16:08:46;9.88;;;3.00;;
6953;SDS011;3516;47.980;8.808;2022-12-07T16:11:13;18.25;;;3.40;;
6953;SDS011;3516;47.980;8.808;2022-12-07T16:13:40;13.70;;;3.83;;
6953;SDS011;3516;47.980;8.808;2022-12-07T16:16:08;12.35;;;3.40;;
6953;SDS011;3516;47.980;8.808;2022-12-07T16:18:38;12.20;;;3.25;;
6953;SDS011;3516;47.980;8.808;2022-12-07T16:21:05;14.70;;;2.70;;
6953;SDS011;3516;47.980;8.808;2022-12-07T16:23:32;15.52;;;3.33;;
6953;SDS011;3516;47.980;8.808;2022-12-07T16:26:07;13.32;;;3.85;;
6953;SDS011;3516;47.980;8.808;2022-12-07T16:28:34;14.00;;;2.63;;
6953;SDS011;3516;47.980;8.808;2022-12-07T16:31:02;12.73;;;3.78;;
6953;SDS011;3516;47.980;8.808;2022-12-07T16:33:30;13.68;;;3.90;;
6953;SDS011;3516;47.980;8.808;2022-12-07T16:35:57;19.08;;;3.67;;
6953;SDS011;3516;47.980;8.808;2022-12-07T16:38:24;20.75;;;3.40;;
6953;SDS011;3516;47.980;8.808;2022-12-07T16:40:52;18.40;;;3.65;;
6953;SDS011;3516;47.980;8.808;2022-12-07T16:43:21;14.88;;;3.45;;
6953;SDS011;3516;47.980;8.808;2022-12-07T16:45:47;16.02;;;3.65;;
6953;SDS011;3516;47.980;8.808;2022-12-07T16:48:14;22.45;;;3.72;;
6953;SDS011;3516;47.980;8.808;2022-12-07T16:50:41;12.68;;;3.38;;
6953;SDS011;3516;47.980;8.808;2022-12-07T16:53:09;14.52;;;3.67;;
6953;SDS011;3516;47.980;8.808;2022-12-07T16:55:37;15.93;;;3.08;;
6953;SDS011;3516;47.980;8.808;2022-12-07T16:58:04;12.45;;;3.20;;
6953;SDS011;3516;47.980;8.808;2022-12-07T17:00:33;11.68;;;3.00;;
6953;SDS011;3516;47.980;8.808;2022-12-07T17:03:00;10.07;;;2.45;;
6953;SDS011;3516;47.980;8.808;2022-12-07T17:05:26;9.18;;;2.90;;
6953;SDS011;3516;47.980;8.808;2022-12-07T17:07:54;12.38;;;3.22;;
6953;SDS011;3516;47.980;8.808;2022-12-07T17:10:21;15.20;;;2.75;;
6953;SDS011;3516;47.980;8.808;2022-12-07T17:12:49;9.25;;;3.00;;
6953;SDS011;3516;47.980;8.808;2022-12-07T17:15:16;14.05;;;2.95;;
6953;SDS011;3516;47.980;8.808;2022-12-07T17:17:44;5.38;;;2.75;;
6953;SDS011;3516;47.980;8.808;2022-12-07T17:20:12;10.13;;;3.30;;
6953;SDS011;3516;47.980;8.808;2022-12-07T17:22:39;18.05;;;3.08;;
6953;SDS011;3516;47.980;8.808;2022-12-07T17:25:06;6.47;;;2.40;;
6953;SDS011;3516;47.980;8.808;2022-12-07T17:27:34;14.25;;;3.00;;
6953;SDS011;3516;47.980;8.808;2022-12-07T17:30:03;29.77;;;3.67;;
6953;SDS011;3516;47.980;8.808;2022-12-07T17:32:30;20.83;;;3.85;;
6953;SDS011;3516;47.980;8.808;2022-12-07T17:34:58;17.55;;;3.20;;
6953;SDS011;3516;47.980;8.808;2022-12-07T17:37:25;16.20;;;3.40;;
6953;SDS011;3516;47.980;8.808;2022-12-07T17:39:52;16.33;;;2.85;;
6953;SDS011;3516;47.980;8.808;2022-12-07T17:42:22;16.98;;;2.92;;
6953;SDS011;3516;47.980;8.808;2022-12-07T17:45:05;22.10;;;3.50;;
6953;SDS011;3516;47.980;8.808;2022-12-07T17:47:33;20.25;;;3.30;;
6953;SDS011;3516;47.980;8.808;2022-12-07T17:50:01;12.18;;;2.72;;
6953;SDS011;3516;47.980;8.808;2022-12-07T17:52:28;13.35;;;2.97;;
6953;SDS011;3516;47.980;8.808;2022-12-07T17:55:12;16.08;;;3.33;;
6953;SDS011;3516;47.980;8.808;2022-12-07T17:57:38;19.15;;;3.47;;
6953;SDS011;3516;47.980;8.808;2022-12-07T18:00:06;10.95;;;3.05;;
6953;SDS011;3516;47.980;8.808;2022-12-07T18:02:33;16.90;;;3.20;;
6953;SDS011;3516;47.980;8.808;2022-12-07T18:05:01;23.42;;;2.85;;
6953;SDS011;3516;47.980;8.808;2022-12-07T18:07:28;17.58;;;3.22;;
6953;SDS011;3516;47.980;8.808;2022-12-07T18:09:55;11.68;;;2.72;;
6953;SDS011;3516;47.980;8.808;2022-12-07T18:12:22;15.20;;;3.10;;
6953;SDS011;3516;47.980;8.808;2022-12-07T18:14:49;15.50;;;2.53;;
6953;SDS011;3516;47.980;8.808;2022-12-07T18:17:18;14.43;;;2.22;;
6953;SDS011;3516;47.980;8.808;2022-12-07T18:19:45;14.95;;;2.97;;
6953;SDS011;3516;47.980;8.808;2022-12-07T18:22:13;21.20;;;3.05;;
6953;SDS011;3516;47.980;8.808;2022-12-07T18:24:39;12.65;;;2.85;;
6953;SDS011;3516;47.980;8.808;2022-12-07T18:27:07;20.05;;;2.25;;
6953;SDS011;3516;47.980;8.808;2022-12-07T18:29:33;16.65;;;2.47;;
6953;SDS011;3516;47.980;8.808;2022-12-07T18:32:00;20.67;;;2.38;;
6953;SDS011;3516;47.980;8.808;2022-12-07T18:34:28;14.68;;;2.83;;
6953;SDS011;3516;47.980;8.808;2022-12-07T18:36:55;9.05;;;2.60;;
6953;SDS011;3516;47.980;8.808;2022-12-07T18:39:24;15.95;;;2.53;;
6953;SDS011;3516;47.980;8.808;2022-12-07T18:41:51;12.95;;;2.97;;
6953;SDS011;3516;47.980;8.808;2022-12-07T18:44:17;7.40;;;2.50;;
6953;SDS011;3516;47.980;8.808;2022-12-07T18:46:44;12.52;;;2.60;;
6953;SDS011;3516;47.980;8.808;2022-12-07T18:49:12;16.17;;;2.80;;
6953;SDS011;3516;47.980;8.808;2022-12-07T18:51:39;7.30;;;1.77;;
6953;SDS011;3516;47.980;8.808;2022-12-07T18:54:07;15.15;;;2.63;;
6953;SDS011;3516;47.980;8.808;2022-12-07T18:56:35;15.40;;;2.92;;
6953;SDS011;3516;47.980;8.808;2022-12-07T18:59:02;12.90;;;2.78;;
6953;SDS011;3516;47.980;8.808;2022-12-07T19:01:48;10.13;;;2.28;;
6953;SDS011;3516;47.980;8.808;2022-12-07T19:04:17;9.45;;;2.25;;
6953;SDS011;3516;47.980;8.808;2022-12-07T19:06:44;6.03;;;2.35;;
6953;SDS011;3516;47.980;8.808;2022-12-07T19:09:12;8.05;;;2.45;;
6953;SDS011;3516;47.980;8.808;2022-12-07T19:11:41;11.15;;;2.15;;
6953;SDS011;3516;47.980;8.808;2022-12-07T19:14:21;9.05;;;2.63;;
6953;SDS011;3516;47.980;8.808;2022-12-07T19:16:50;6.18;;;2.33;;
6953;SDS011;3516;47.980;8.808;2022-12-07T19:19:18;9.30;;;2.50;;
6953;SDS011;3516;47.980;8.808;2022-12-07T19:21:47;13.15;;;3.08;;
6953;SDS011;3516;47.980;8.808;2022-12-07T19:24:14;8.00;;;2.53;;
6953;SDS011;3516;47.980;8.808;2022-12-07T19:26:42;5.05;;;2.30;;
6953;SDS011;3516;47.980;8.808;2022-12-07T19:29:09;3.58;;;2.28;;
6953;SDS011;3516;47.980;8.808;2022-12-07T19:31:36;4.13;;;2.22;;
6953;SDS011;3516;47.980;8.808;2022-12-07T19:34:06;5.35;;;2.47;;
6953;SDS011;3516;47.980;8.808;2022-12-07T19:36:34;6.93;;;2.47;;
6953;SDS011;3516;47.980;8.808;2022-12-07T19:39:01;4.65;;;2.50;;
6953;SDS011;3516;47.980;8.808;2022-12-07T19:41:28;4.90;;;2.20;;
6953;SDS011;3516;47.980;8.808;2022-12-07T19:44:03;8.05;;;2.45;;
6953;SDS011;3516;47.980;8.808;2022-12-07T19:46:32;5.32;;;2.28;;
6953;SDS011;3516;47.980;8.808;2022-12-07T19:48:59;5.93;;;2.15;;
6953;SDS011;3516;47.980;8.808;2022-12-07T19:51:26;2.22;;;1.98;;
6953;SDS011;3516;47.980;8.808;2022-12-07T19:53:54;6.68;;;2.10;;
6953;SDS011;3516;47.980;8.808;2022-12-07T19:56:22;7.55;;;2.03;;
6953;SDS011;3516;47.980;8.808;2022-12-07T19:58:49;5.53;;;2.10;;
6953;SDS011;3516;47.980;8.808;2022-12-07T20:01:18;4.45;;;1.90;;
6953;SDS011;3516;47.980;8.808;2022-12-07T20:03:45;6.20;;;2.22;;
6953;SDS011;3516;47.980;8.808;2022-12-07T20:06:12;5.18;;;2.00;;
6953;SDS011;3516;47.980;8.808;2022-12-07T20:08:41;4.90;;;2.25;;
6953;SDS011;3516;47.980;8.808;2022-12-07T20:11:08;9.82;;;2.90;;
6953;SDS011;3516;47.980;8.808;2022-12-07T20:13:53;10.38;;;2.83;;
6953;SDS011;3516;47.980;8.808;2022-12-07T20:16:21;2.50;;;1.90;;
6953;SDS011;3516;47.980;8.808;2022-12-07T20:18:49;3.42;;;2.15;;
6953;SDS011;3516;47.980;8.808;2022-12-07T20:21:16;6.95;;;2.25;;
6953;SDS011;3516;47.980;8.808;2022-12-07T20:23:43;2.13;;;1.73;;
6953;SDS011;3516;47.980;8.808;2022-12-07T20:26:10;3.42;;;2.13;;
6953;SDS011;3516;47.980;8.808;2022-12-07T20:28:39;4.43;;;2.30;;
6953;SDS011;3516;47.980;8.808;2022-12-07T20:31:10;3.67;;;1.80;;
6953;SDS011;3516;47.980;8.808;2022-12-07T20:33:38;4.47;;;1.95;;
6953;SDS011;3516;47.980;8.808;2022-12-07T20:36:06;5.53;;;1.67;;
6953;SDS011;3516;47.980;8.808;2022-12-07T20:38:34;6.25;;;2.20;;
6953;SDS011;3516;47.980;8.808;2022-12-07T20:41:01;3.80;;;1.90;;
6953;SDS011;3516;47.980;8.808;2022-12-07T20:43:29;2.80;;;2.03;;
6953;SDS011;3516;47.980;8.808;2022-12-07T20:45:55;7.38;;;2.40;;